Weather at Show Low Regional Airport

Public forecast

Using degrees Fahrenheit for public forecast. Weather courtesy of forecast.io.

Current aviation weather report (METAR) for Show Low Regional Airport

Retrieved 2021/10/15 22:35 UTC (16 minutes ago):

KSOW 152235Z AUTO 02013KT 10SM CLR 13/M09 A3034 RMK AO2

Closest aviation forecast (TAF) to Show Low Regional Airport

Closest forecast is Winslow Lindbergh Regional Airport, 57.6 nm (106.6 km) NW. Retrieved 2021/10/15 18:22 UTC (4 hours ago):

TAF KINW 151720Z 1518/1618 VRB05KT P6SM SKC FM152000 33010KT P6SM SKC FM160200 VRB05KT P6SM SKC